sensor_id;sensor_type;location;lat;lon;timestamp;pressure;altitude;pressure_sealevel;temperature;humidity
35649;BME280;21768;48.562;13.414;2024-01-25T00:00:52;98187.22;;;9.44;57.33
35649;BME280;21768;48.562;13.414;2024-01-25T00:03:18;98182.16;;;9.44;57.28
35649;BME280;21768;48.562;13.414;2024-01-25T00:05:43;98181.91;;;9.41;57.59
35649;BME280;21768;48.562;13.414;2024-01-25T00:08:08;98182.81;;;9.42;57.54
35649;BME280;21768;48.562;13.414;2024-01-25T00:10:34;98185.31;;;9.42;57.75
35649;BME280;21768;48.562;13.414;2024-01-25T00:12:59;98190.34;;;9.42;57.60
35649;BME280;21768;48.562;13.414;2024-01-25T00:15:24;98186.06;;;9.41;57.82
35649;BME280;21768;48.562;13.414;2024-01-25T00:17:50;98183.69;;;9.42;57.86
35649;BME280;21768;48.562;13.414;2024-01-25T00:20:15;98185.31;;;9.42;57.58
35649;BME280;21768;48.562;13.414;2024-01-25T00:22:41;98173.72;;;9.44;57.87
35649;BME280;21768;48.562;13.414;2024-01-25T00:25:07;98188.97;;;9.45;57.77
35649;BME280;21768;48.562;13.414;2024-01-25T00:27:32;98200.94;;;9.48;57.84
35649;BME280;21768;48.562;13.414;2024-01-25T00:29:58;98197.53;;;9.47;58.06
35649;BME280;21768;48.562;13.414;2024-01-25T00:32:23;98205.47;;;9.52;58.06
35649;BME280;21768;48.562;13.414;2024-01-25T00:34:48;98203.97;;;9.54;57.95
35649;BME280;21768;48.562;13.414;2024-01-25T00:37:14;98211.53;;;9.54;58.05
35649;BME280;21768;48.562;13.414;2024-01-25T00:39:40;98197.41;;;9.56;58.14
35649;BME280;21768;48.562;13.414;2024-01-25T00:42:06;98211.66;;;9.55;58.24
35649;BME280;21768;48.562;13.414;2024-01-25T00:44:32;98209.88;;;9.54;58.52
35649;BME280;21768;48.562;13.414;2024-01-25T00:46:58;98213.03;;;9.52;58.32
35649;BME280;21768;48.562;13.414;2024-01-25T00:49:24;98206.34;;;9.52;58.62
35649;BME280;21768;48.562;13.414;2024-01-25T00:51:50;98198.66;;;9.51;58.93
35649;BME280;21768;48.562;13.414;2024-01-25T00:54:19;98204.22;;;9.47;59.09
35649;BME280;21768;48.562;13.414;2024-01-25T00:56:44;98200.56;;;9.43;59.38
35649;BME280;21768;48.562;13.414;2024-01-25T00:59:10;98196.41;;;9.44;59.50
35649;BME280;21768;48.562;13.414;2024-01-25T01:01:36;98190.88;;;9.38;59.35
35649;BME280;21768;48.562;13.414;2024-01-25T01:04:02;98197.69;;;9.39;59.78
35649;BME280;21768;48.562;13.414;2024-01-25T01:06:28;98199.19;;;9.37;59.81
35649;BME280;21768;48.562;13.414;2024-01-25T01:08:53;98194.91;;;9.36;59.86
35649;BME280;21768;48.562;13.414;2024-01-25T01:11:19;98190.75;;;9.36;59.95
35649;BME280;21768;48.562;13.414;2024-01-25T01:13:44;98184.97;;;9.37;59.92
35649;BME280;21768;48.562;13.414;2024-01-25T01:16:10;98194.78;;;9.34;59.97
35649;BME280;21768;48.562;13.414;2024-01-25T01:18:35;98195.53;;;9.33;59.83
35649;BME280;21768;48.562;13.414;2024-01-25T01:21:01;98197.19;;;9.33;60.17
35649;BME280;21768;48.562;13.414;2024-01-25T01:23:27;98198.94;;;9.34;60.20
35649;BME280;21768;48.562;13.414;2024-01-25T01:25:52;98193.03;;;9.33;60.35
35649;BME280;21768;48.562;13.414;2024-01-25T01:28:17;98188.88;;;9.34;60.21
35649;BME280;21768;48.562;13.414;2024-01-25T01:30:43;98193.03;;;9.33;60.45
35649;BME280;21768;48.562;13.414;2024-01-25T01:33:09;98190.38;;;9.32;60.43
35649;BME280;21768;48.562;13.414;2024-01-25T01:35:34;98186.22;;;9.32;60.13
35649;BME280;21768;48.562;13.414;2024-01-25T01:37:59;98182.81;;;9.32;60.54
35649;BME280;21768;48.562;13.414;2024-01-25T01:40:25;98180.44;;;9.33;60.66
35649;BME280;21768;48.562;13.414;2024-01-25T01:42:50;98176.28;;;9.34;60.54
35649;BME280;21768;48.562;13.414;2024-01-25T01:45:15;98175.28;;;9.32;60.65
35649;BME280;21768;48.562;13.414;2024-01-25T01:47:41;98170.84;;;9.29;60.73
35649;BME280;21768;48.562;13.414;2024-01-25T01:50:07;98176.78;;;9.30;60.66
35649;BME280;21768;48.562;13.414;2024-01-25T01:52:33;98173.50;;;9.31;60.70
35649;BME280;21768;48.562;13.414;2024-01-25T01:54:58;98170.22;;;9.32;60.72
35649;BME280;21768;48.562;13.414;2024-01-25T01:57:24;98165.19;;;9.32;60.68
35649;BME280;21768;48.562;13.414;2024-01-25T01:59:50;98167.72;;;9.32;60.80
35649;BME280;21768;48.562;13.414;2024-01-25T02:02:16;98157.50;;;9.30;60.92
35649;BME280;21768;48.562;13.414;2024-01-25T02:04:43;98162.44;;;9.29;60.98
35649;BME280;21768;48.562;13.414;2024-01-25T02:07:08;98160.66;;;9.28;60.97
35649;BME280;21768;48.562;13.414;2024-01-25T02:09:34;98168.47;;;9.31;61.00
35649;BME280;21768;48.562;13.414;2024-01-25T02:12:03;98168.47;;;9.31;61.00
35649;BME280;21768;48.562;13.414;2024-01-25T02:14:30;98174.25;;;9.30;60.99
35649;BME280;21768;48.562;13.414;2024-01-25T02:16:56;98171.00;;;9.31;61.08
35649;BME280;21768;48.562;13.414;2024-01-25T02:19:21;98173.50;;;9.31;61.19
35649;BME280;21768;48.562;13.414;2024-01-25T02:21:47;98169.97;;;9.29;61.12
35649;BME280;21768;48.562;13.414;2024-01-25T02:24:13;98167.34;;;9.27;60.96
35649;BME280;21768;48.562;13.414;2024-01-25T02:26:38;98164.06;;;9.28;61.12
35649;BME280;21768;48.562;13.414;2024-01-25T02:29:04;98163.19;;;9.28;60.99
35649;BME280;21768;48.562;13.414;2024-01-25T02:31:30;98147.06;;;9.26;60.95
35649;BME280;21768;48.562;13.414;2024-01-25T02:33:55;98158.91;;;9.27;60.80
35649;BME280;21768;48.562;13.414;2024-01-25T02:36:22;98151.97;;;9.24;60.74
35649;BME280;21768;48.562;13.414;2024-01-25T02:38:47;98147.94;;;9.26;60.92
35649;BME280;21768;48.562;13.414;2024-01-25T02:41:13;98154.63;;;9.26;60.75
35649;BME280;21768;48.562;13.414;2024-01-25T02:43:38;98152.84;;;9.25;60.79
35649;BME280;21768;48.562;13.414;2024-01-25T02:46:03;98155.50;;;9.26;60.86
35649;BME280;21768;48.562;13.414;2024-01-25T02:48:29;98156.25;;;9.25;60.90
35649;BME280;21768;48.562;13.414;2024-01-25T02:50:54;98159.66;;;9.26;60.86
35649;BME280;21768;48.562;13.414;2024-01-25T02:53:19;98141.03;;;9.24;60.70
35649;BME280;21768;48.562;13.414;2024-01-25T02:55:45;98156.13;;;9.24;60.70
35649;BME280;21768;48.562;13.414;2024-01-25T02:58:10;98158.91;;;9.27;60.76
35649;BME280;21768;48.562;13.414;2024-01-25T03:00:35;98151.34;;;9.27;60.80
35649;BME280;21768;48.562;13.414;2024-01-25T03:03:01;98160.41;;;9.25;60.86
35649;BME280;21768;48.562;13.414;2024-01-25T03:05:26;98156.88;;;9.23;60.79
35649;BME280;21768;48.562;13.414;2024-01-25T03:07:51;98150.22;;;9.23;60.81
35649;BME280;21768;48.562;13.414;2024-01-25T03:10:17;98147.44;;;9.20;60.91
35649;BME280;21768;48.562;13.414;2024-01-25T03:12:42;98148.19;;;9.19;60.92
35649;BME280;21768;48.562;13.414;2024-01-25T03:15:08;98147.31;;;9.18;60.99
35649;BME280;21768;48.562;13.414;2024-01-25T03:17:34;98152.34;;;9.18;60.93
35649;BME280;21768;48.562;13.414;2024-01-25T03:19:59;98149.06;;;9.19;60.95
35649;BME280;21768;48.562;13.414;2024-01-25T03:22:25;98155.88;;;9.20;61.05
35649;BME280;21768;48.562;13.414;2024-01-25T03:24:51;98158.50;;;9.22;61.04
35649;BME280;21768;48.562;13.414;2024-01-25T03:27:17;98156.38;;;9.27;60.90
35649;BME280;21768;48.562;13.414;2024-01-25T03:29:43;98152.09;;;9.26;60.99
35649;BME280;21768;48.562;13.414;2024-01-25T03:32:12;98157.88;;;9.25;61.00
35649;BME280;21768;48.562;13.414;2024-01-25T03:34:37;98145.16;;;9.23;60.94
35649;BME280;21768;48.562;13.414;2024-01-25T03:37:03;98147.69;;;9.23;60.98
35649;BME280;21768;48.562;13.414;2024-01-25T03:39:29;98143.53;;;9.24;61.28
35649;BME280;21768;48.562;13.414;2024-01-25T03:41:54;98140.13;;;9.23;61.14
35649;BME280;21768;48.562;13.414;2024-01-25T03:44:19;98155.25;;;9.23;60.97
35649;BME280;21768;48.562;13.414;2024-01-25T03:46:45;98149.59;;;9.26;61.19
35649;BME280;21768;48.562;13.414;2024-01-25T03:49:10;98158.63;;;9.24;61.27
35649;BME280;21768;48.562;13.414;2024-01-25T03:51:35;98151.47;;;9.18;61.17
35649;BME280;21768;48.562;13.414;2024-01-25T03:54:02;98157.16;;;9.15;61.15
35649;BME280;21768;48.562;13.414;2024-01-25T03:56:27;98156.28;;;9.15;61.29
35649;BME280;21768;48.562;13.414;2024-01-25T03:58:53;98152.13;;;9.15;61.28
35649;BME280;21768;48.562;13.414;2024-01-25T04:01:18;98152.88;;;9.14;61.28
35649;BME280;21768;48.562;13.414;2024-01-25T04:03:43;98159.41;;;9.12;61.10
35649;BME280;21768;48.562;13.414;2024-01-25T04:06:09;98162.56;;;9.10;61.12
35649;BME280;21768;48.562;13.414;2024-01-25T04:08:34;98157.41;;;9.08;60.91
35649;BME280;21768;48.562;13.414;2024-01-25T04:10:59;98159.78;;;9.07;60.93
35649;BME280;21768;48.562;13.414;2024-01-25T04:13:25;98148.97;;;9.08;61.05
35649;BME280;21768;48.562;13.414;2024-01-25T04:15:50;98145.69;;;9.09;60.68
35649;BME280;21768;48.562;13.414;2024-01-25T04:18:16;98146.44;;;9.08;60.94
35649;BME280;21768;48.562;13.414;2024-01-25T04:20:43;98149.84;;;9.08;61.13
35649;BME280;21768;48.562;13.414;2024-01-25T04:23:09;98148.34;;;9.10;61.09
35649;BME280;21768;48.562;13.414;2024-01-25T04:25:34;98153.38;;;9.10;61.02
35649;BME280;21768;48.562;13.414;2024-01-25T04:28:00;98146.69;;;9.11;60.81
35649;BME280;21768;48.562;13.414;2024-01-25T04:30:25;98158.41;;;9.10;60.77
35649;BME280;21768;48.562;13.414;2024-01-25T04:32:51;98145.81;;;9.10;60.84
35649;BME280;21768;48.562;13.414;2024-01-25T04:35:16;98148.22;;;9.09;60.89
35649;BME280;21768;48.562;13.414;2024-01-25T04:37:41;98148.97;;;9.08;60.84
35649;BME280;21768;48.562;13.414;2024-01-25T04:40:07;98148.56;;;9.03;60.71
35649;BME280;21768;48.562;13.414;2024-01-25T04:42:33;98153.63;;;9.03;60.91
35649;BME280;21768;48.562;13.414;2024-01-25T04:44:58;98153.47;;;9.02;60.87
35649;BME280;21768;48.562;13.414;2024-01-25T04:47:24;98171.22;;;9.03;60.76
35649;BME280;21768;48.562;13.414;2024-01-25T04:49:49;98163.69;;;9.03;60.92
35649;BME280;21768;48.562;13.414;2024-01-25T04:52:14;98166.19;;;9.03;60.89
35649;BME280;21768;48.562;13.414;2024-01-25T04:54:40;98168.72;;;9.03;60.96
35649;BME280;21768;48.562;13.414;2024-01-25T04:57:05;98169.47;;;9.02;61.06
35649;BME280;21768;48.562;13.414;2024-01-25T04:59:35;98176.88;;;9.01;61.19
35649;BME280;21768;48.562;13.414;2024-01-25T05:02:01;98172.59;;;9.00;61.23
35649;BME280;21768;48.562;13.414;2024-01-25T05:04:28;98179.28;;;8.99;61.24
35649;BME280;21768;48.562;13.414;2024-01-25T05:06:54;98184.31;;;8.99;61.19
35649;BME280;21768;48.562;13.414;2024-01-25T05:09:19;98183.44;;;8.99;61.19
35649;BME280;21768;48.562;13.414;2024-01-25T05:11:45;98179.00;;;8.96;60.97
35649;BME280;21768;48.562;13.414;2024-01-25T05:14:11;98190.84;;;8.97;61.22
35649;BME280;21768;48.562;13.414;2024-01-25T05:16:36;98195.75;;;8.96;61.38
35649;BME280;21768;48.562;13.414;2024-01-25T05:19:02;98203.31;;;8.96;61.29
35649;BME280;21768;48.562;13.414;2024-01-25T05:21:27;98199.16;;;8.96;61.38
35649;BME280;21768;48.562;13.414;2024-01-25T05:23:52;98202.41;;;8.95;61.26
35649;BME280;21768;48.562;13.414;2024-01-25T05:26:18;98204.19;;;8.96;61.33
35649;BME280;21768;48.562;13.414;2024-01-25T05:28:44;98204.19;;;8.96;61.04
35649;BME280;21768;48.562;13.414;2024-01-25T05:31:09;98198.53;;;8.99;61.30
35649;BME280;21768;48.562;13.414;2024-01-25T05:33:41;98188.59;;;9.00;61.28
35649;BME280;21768;48.562;13.414;2024-01-25T05:36:06;98203.69;;;9.00;61.50
35649;BME280;21768;48.562;13.414;2024-01-25T05:38:32;98200.41;;;9.01;60.91
35649;BME280;21768;48.562;13.414;2024-01-25T05:40:58;98206.22;;;9.00;61.39
35649;BME280;21768;48.562;13.414;2024-01-25T05:43:23;98210.22;;;8.98;61.50
35649;BME280;21768;48.562;13.414;2024-01-25T05:45:49;98212.00;;;8.99;60.89
35649;BME280;21768;48.562;13.414;2024-01-25T05:48:15;98212.75;;;8.98;61.58
35649;BME280;21768;48.562;13.414;2024-01-25T05:50:40;98220.28;;;8.98;61.44
35649;BME280;21768;48.562;13.414;2024-01-25T05:53:05;98214.50;;;8.99;61.55
35649;BME280;21768;48.562;13.414;2024-01-25T05:55:31;98213.00;;;9.01;61.39
35649;BME280;21768;48.562;13.414;2024-01-25T05:57:56;98220.81;;;9.04;61.53
35649;BME280;21768;48.562;13.414;2024-01-25T06:00:22;98228.38;;;9.04;61.34
35649;BME280;21768;48.562;13.414;2024-01-25T06:02:47;98223.06;;;9.01;61.32
35649;BME280;21768;48.562;13.414;2024-01-25T06:05:13;98214.50;;;8.99;61.21
35649;BME280;21768;48.562;13.414;2024-01-25T06:07:38;98223.56;;;8.97;61.37
35649;BME280;21768;48.562;13.414;2024-01-25T06:10:04;98216.16;;;8.99;61.32
35649;BME280;21768;48.562;13.414;2024-01-25T06:12:29;98213.63;;;8.99;61.38
35649;BME280;21768;48.562;13.414;2024-01-25T06:14:54;98207.72;;;8.98;61.51
35649;BME280;21768;48.562;13.414;2024-01-25T06:17:20;98201.94;;;8.99;61.57
35649;BME280;21768;48.562;13.414;2024-01-25T06:19:45;98202.06;;;9.01;61.47
35649;BME280;21768;48.562;13.414;2024-01-25T06:22:11;98207.72;;;8.98;61.51
35649;BME280;21768;48.562;13.414;2024-01-25T06:24:38;98209.22;;;8.96;61.51
35649;BME280;21768;48.562;13.414;2024-01-25T06:27:03;98224.56;;;8.99;61.37
35649;BME280;21768;48.562;13.414;2024-01-25T06:29:29;98235.91;;;9.04;62.34
35649;BME280;21768;48.562;13.414;2024-01-25T06:31:54;98245.38;;;9.07;62.16
35649;BME280;21768;48.562;13.414;2024-01-25T06:34:19;98254.69;;;9.08;61.84
35649;BME280;21768;48.562;13.414;2024-01-25T06:36:45;98250.88;;;9.03;61.34
35649;BME280;21768;48.562;13.414;2024-01-25T06:39:10;98261.56;;;9.00;61.27
35649;BME280;21768;48.562;13.414;2024-01-25T06:41:35;98276.41;;;8.97;61.39
35649;BME280;21768;48.562;13.414;2024-01-25T06:44:01;98273.91;;;8.97;61.89
35649;BME280;21768;48.562;13.414;2024-01-25T06:46:26;98278.66;;;8.94;61.69
35649;BME280;21768;48.562;13.414;2024-01-25T06:48:52;98271.75;;;8.92;62.44
35649;BME280;21768;48.562;13.414;2024-01-25T06:51:17;98274.78;;;8.88;62.56
35649;BME280;21768;48.562;13.414;2024-01-25T06:53:43;98269.47;;;8.84;62.63
35649;BME280;21768;48.562;13.414;2024-01-25T06:56:08;98273.88;;;8.87;62.62
35649;BME280;21768;48.562;13.414;2024-01-25T06:58:34;98261.03;;;8.84;62.66
35649;BME280;21768;48.562;13.414;2024-01-25T07:00:59;98271.59;;;8.80;62.52
35649;BME280;21768;48.562;13.414;2024-01-25T07:03:25;98267.44;;;8.80;62.48
35649;BME280;21768;48.562;13.414;2024-01-25T07:05:50;98256.75;;;8.83;62.35
35649;BME280;21768;48.562;13.414;2024-01-25T07:08:16;98265.19;;;8.83;62.25
35649;BME280;21768;48.562;13.414;2024-01-25T07:10:42;98271.09;;;8.84;62.25
35649;BME280;21768;48.562;13.414;2024-01-25T07:13:07;98285.47;;;8.85;62.14
35649;BME280;21768;48.562;13.414;2024-01-25T07:15:32;98293.88;;;8.85;62.14
35649;BME280;21768;48.562;13.414;2024-01-25T07:17:58;98309.13;;;8.87;62.02
35649;BME280;21768;48.562;13.414;2024-01-25T07:20:23;98316.16;;;8.91;62.00
35649;BME280;21768;48.562;13.414;2024-01-25T07:22:48;98319.56;;;8.92;62.15
35649;BME280;21768;48.562;13.414;2024-01-25T07:25:14;98321.09;;;8.90;62.11
35649;BME280;21768;48.562;13.414;2024-01-25T07:27:39;98317.41;;;8.86;62.20
35649;BME280;21768;48.562;13.414;2024-01-25T07:30:05;98326.88;;;8.89;62.31
35649;BME280;21768;48.562;13.414;2024-01-25T07:32:32;98323.84;;;8.93;62.29
35649;BME280;21768;48.562;13.414;2024-01-25T07:34:59;98338.69;;;8.90;62.06
35649;BME280;21768;48.562;13.414;2024-01-25T07:37:24;98350.78;;;8.94;62.00
35649;BME280;21768;48.562;13.414;2024-01-25T07:39:50;98345.25;;;8.98;61.95
35649;BME280;21768;48.562;13.414;2024-01-25T07:42:15;98356.94;;;8.97;61.55
35649;BME280;21768;48.562;13.414;2024-01-25T07:44:40;98358.44;;;8.95;61.12
35649;BME280;21768;48.562;13.414;2024-01-25T07:47:06;98360.22;;;8.96;61.09
35649;BME280;21768;48.562;13.414;2024-01-25T07:49:31;98365.66;;;9.01;61.34
35649;BME280;21768;48.562;13.414;2024-01-25T07:51:56;98354.22;;;9.04;60.71
35649;BME280;21768;48.562;13.414;2024-01-25T07:54:22;98350.97;;;9.05;61.11
35649;BME280;21768;48.562;13.414;2024-01-25T07:56:47;98348.22;;;9.12;60.78
35649;BME280;21768;48.562;13.414;2024-01-25T07:59:13;98341.78;;;9.16;60.59
35649;BME280;21768;48.562;13.414;2024-01-25T08:01:38;98353.00;;;9.19;60.54
35649;BME280;21768;48.562;13.414;2024-01-25T08:04:04;98348.09;;;9.21;60.01
35649;BME280;21768;48.562;13.414;2024-01-25T08:06:29;98347.09;;;9.19;60.06
35649;BME280;21768;48.562;13.414;2024-01-25T08:08:54;98338.50;;;9.17;60.15
35649;BME280;21768;48.562;13.414;2024-01-25T08:11:20;98330.97;;;9.17;60.25
35649;BME280;21768;48.562;13.414;2024-01-25T08:13:46;98329.31;;;9.17;60.09
35649;BME280;21768;48.562;13.414;2024-01-25T08:16:13;98316.75;;;9.17;60.33
35649;BME280;21768;48.562;13.414;2024-01-25T08:18:39;98324.16;;;9.16;60.38
35649;BME280;21768;48.562;13.414;2024-01-25T08:21:05;98329.19;;;9.16;60.38
35649;BME280;21768;48.562;13.414;2024-01-25T08:23:30;98325.44;;;9.11;60.35
35649;BME280;21768;48.562;13.414;2024-01-25T08:25:55;98346.44;;;9.11;60.62
35649;BME280;21768;48.562;13.414;2024-01-25T08:28:21;98330.88;;;9.15;60.32
35649;BME280;21768;48.562;13.414;2024-01-25T08:30:47;98347.69;;;9.16;60.24
35649;BME280;21768;48.562;13.414;2024-01-25T08:33:13;98340.28;;;9.18;60.28
35649;BME280;21768;48.562;13.414;2024-01-25T08:35:38;98344.31;;;9.16;60.20
35649;BME280;21768;48.562;13.414;2024-01-25T08:38:06;98350.47;;;9.09;60.42
35649;BME280;21768;48.562;13.414;2024-01-25T08:40:31;98343.19;;;9.12;60.46
35649;BME280;21768;48.562;13.414;2024-01-25T08:42:56;98350.31;;;9.37;59.66
35649;BME280;21768;48.562;13.414;2024-01-25T08:45:22;98336.22;;;9.59;59.23
35649;BME280;21768;48.562;13.414;2024-01-25T08:47:47;98328.19;;;9.63;58.93
35649;BME280;21768;48.562;13.414;2024-01-25T08:50:14;98331.81;;;9.67;58.80
35649;BME280;21768;48.562;13.414;2024-01-25T08:52:39;98327.19;;;9.81;58.72
35649;BME280;21768;48.562;13.414;2024-01-25T08:55:06;98337.00;;;9.99;58.29
35649;BME280;21768;48.562;13.414;2024-01-25T08:57:32;98336.38;;;10.01;58.26
35649;BME280;21768;48.562;13.414;2024-01-25T08:59:58;98345.06;;;9.95;57.98
35649;BME280;21768;48.562;13.414;2024-01-25T09:02:24;98365.22;;;9.95;58.31
35649;BME280;21768;48.562;13.414;2024-01-25T09:04:52;98366.50;;;10.30;57.55
35649;BME280;21768;48.562;13.414;2024-01-25T09:07:19;98364.03;;;10.72;55.89
35649;BME280;21768;48.562;13.414;2024-01-25T09:09:44;98368.06;;;11.12;55.73
35649;BME280;21768;48.562;13.414;2024-01-25T09:12:10;98367.56;;;11.06;55.19
35649;BME280;21768;48.562;13.414;2024-01-25T09:14:36;98373.97;;;10.81;55.70
35649;BME280;21768;48.562;13.414;2024-01-25T09:17:02;98384.59;;;10.67;56.41
35649;BME280;21768;48.562;13.414;2024-01-25T09:19:27;98395.88;;;10.50;55.79
35649;BME280;21768;48.562;13.414;2024-01-25T09:21:52;98392.88;;;10.23;56.42
35649;BME280;21768;48.562;13.414;2024-01-25T09:24:19;98404.56;;;10.13;56.90
35649;BME280;21768;48.562;13.414;2024-01-25T09:26:44;98399.91;;;10.07;56.62
35649;BME280;21768;48.562;13.414;2024-01-25T09:29:10;98402.53;;;9.99;56.92
35649;BME280;21768;48.562;13.414;2024-01-25T09:31:35;98394.72;;;9.96;57.06
35649;BME280;21768;48.562;13.414;2024-01-25T09:34:00;98391.06;;;9.92;56.68
35649;BME280;21768;48.562;13.414;2024-01-25T09:36:26;98400.03;;;9.88;56.98
35649;BME280;21768;48.562;13.414;2024-01-25T09:38:51;98396.75;;;9.89;57.05
35649;BME280;21768;48.562;13.414;2024-01-25T09:41:17;98399.78;;;9.85;56.66
35649;BME280;21768;48.562;13.414;2024-01-25T09:43:42;98401.28;;;9.83;56.85
35649;BME280;21768;48.562;13.414;2024-01-25T09:46:13;98412.25;;;9.84;56.42
35649;BME280;21768;48.562;13.414;2024-01-25T09:48:40;98417.91;;;9.81;56.86
35649;BME280;21768;48.562;13.414;2024-01-25T09:51:06;98427.50;;;9.85;56.77
35649;BME280;21768;48.562;13.414;2024-01-25T09:53:32;98421.56;;;9.85;56.60
35649;BME280;21768;48.562;13.414;2024-01-25T09:56:05;98441.88;;;9.86;56.72
35649;BME280;21768;48.562;13.414;2024-01-25T09:58:42;98432.53;;;9.85;56.40
35649;BME280;21768;48.562;13.414;2024-01-25T10:01:10;98436.56;;;9.83;56.62
35649;BME280;21768;48.562;13.414;2024-01-25T10:03:36;98436.56;;;9.83;55.88
35649;BME280;21768;48.562;13.414;2024-01-25T10:06:02;98435.16;;;9.77;56.75
35649;BME280;21768;48.562;13.414;2024-01-25T10:08:29;98439.56;;;9.79;57.00
35649;BME280;21768;48.562;13.414;2024-01-25T10:10:54;98435.41;;;9.80;56.21
35649;BME280;21768;48.562;13.414;2024-01-25T10:13:20;98439.31;;;9.76;56.27
35649;BME280;21768;48.562;13.414;2024-01-25T10:15:45;98453.94;;;9.80;56.25
35649;BME280;21768;48.562;13.414;2024-01-25T10:18:13;98440.09;;;9.85;55.97
35649;BME280;21768;48.562;13.414;2024-01-25T10:20:44;98438.31;;;9.84;55.89
35649;BME280;21768;48.562;13.414;2024-01-25T10:23:10;98446.03;;;9.86;56.29
35649;BME280;21768;48.562;13.414;2024-01-25T10:25:36;98441.88;;;9.86;55.55
35649;BME280;21768;48.562;13.414;2024-01-25T10:28:05;98452.44;;;9.82;55.01
35649;BME280;21768;48.562;13.414;2024-01-25T10:30:35;98452.03;;;9.78;55.32
35649;BME280;21768;48.562;13.414;2024-01-25T10:33:01;98458.84;;;9.79;54.85
35649;BME280;21768;48.562;13.414;2024-01-25T10:35:27;98462.00;;;9.76;55.31
35649;BME280;21768;48.562;13.414;2024-01-25T10:37:53;98450.81;;;9.83;55.34
35649;BME280;21768;48.562;13.414;2024-01-25T10:40:20;98457.88;;;9.87;55.06
35649;BME280;21768;48.562;13.414;2024-01-25T10:42:46;98452.56;;;9.84;54.99
35649;BME280;21768;48.562;13.414;2024-01-25T10:45:12;98464.03;;;9.90;55.45
35649;BME280;21768;48.562;13.414;2024-01-25T10:47:38;98468.44;;;9.93;54.35
35649;BME280;21768;48.562;13.414;2024-01-25T10:50:07;98459.38;;;9.85;54.68
35649;BME280;21768;48.562;13.414;2024-01-25T10:52:34;98471.59;;;9.80;54.52
35649;BME280;21768;48.562;13.414;2024-01-25T10:55:01;98476.63;;;9.80;55.07
35649;BME280;21768;48.562;13.414;2024-01-25T10:57:35;98467.06;;;9.86;55.11
35649;BME280;21768;48.562;13.414;2024-01-25T11:00:01;98469.59;;;9.86;54.45
35649;BME280;21768;48.562;13.414;2024-01-25T11:02:28;98460.53;;;9.88;54.88
35649;BME280;21768;48.562;13.414;2024-01-25T11:04:54;98468.84;;;9.87;54.12
35649;BME280;21768;48.562;13.414;2024-01-25T11:07:20;98462.03;;;9.86;54.03
35649;BME280;21768;48.562;13.414;2024-01-25T11:09:47;98465.03;;;9.82;54.48
35649;BME280;21768;48.562;13.414;2024-01-25T11:12:17;98466.66;;;9.82;54.12
35649;BME280;21768;48.562;13.414;2024-01-25T11:14:43;98478.66;;;9.84;54.08
35649;BME280;21768;48.562;13.414;2024-01-25T11:17:23;98459.88;;;9.81;53.85
35649;BME280;21768;48.562;13.414;2024-01-25T11:19:49;98459.88;;;9.81;53.67
35649;BME280;21768;48.562;13.414;2024-01-25T11:22:17;98458.84;;;9.79;52.95
35649;BME280;21768;48.562;13.414;2024-01-25T11:24:43;98455.72;;;9.81;53.52
35649;BME280;21768;48.562;13.414;2024-01-25T11:27:09;98450.94;;;9.84;53.33
35649;BME280;21768;48.562;13.414;2024-01-25T11:29:35;98458.97;;;9.90;53.53
35649;BME280;21768;48.562;13.414;2024-01-25T11:32:04;98461.75;;;9.94;52.74
35649;BME280;21768;48.562;13.414;2024-01-25T11:34:30;98456.72;;;9.94;52.89
35649;BME280;21768;48.562;13.414;2024-01-25T11:36:57;98460.53;;;9.99;52.79
35649;BME280;21768;48.562;13.414;2024-01-25T11:39:23;98461.28;;;9.98;52.71
35649;BME280;21768;48.562;13.414;2024-01-25T11:41:51;98456.63;;;10.02;52.60
35649;BME280;21768;48.562;13.414;2024-01-25T11:44:17;98459.50;;;9.97;53.01
35649;BME280;21768;48.562;13.414;2024-01-25T11:46:42;98457.25;;;9.89;52.90
35649;BME280;21768;48.562;13.414;2024-01-25T11:49:08;98445.00;;;9.84;53.16
35649;BME280;21768;48.562;13.414;2024-01-25T11:51:33;98444.38;;;9.86;53.27
35649;BME280;21768;48.562;13.414;2024-01-25T11:53:59;98449.16;;;9.94;53.32
35649;BME280;21768;48.562;13.414;2024-01-25T11:56:31;98445.25;;;9.97;52.71
35649;BME280;21768;48.562;13.414;2024-01-25T11:58:58;98445.78;;;10.03;52.93
35649;BME280;21768;48.562;13.414;2024-01-25T12:01:27;98445.69;;;10.12;52.67
35649;BME280;21768;48.562;13.414;2024-01-25T12:03:53;98440.66;;;10.22;52.83
35649;BME280;21768;48.562;13.414;2024-01-25T12:06:19;98431.84;;;10.27;52.21
35649;BME280;21768;48.562;13.414;2024-01-25T12:08:45;98438.38;;;10.25;51.91
35649;BME280;21768;48.562;13.414;2024-01-25T12:11:13;98435.25;;;10.28;52.58
35649;BME280;21768;48.562;13.414;2024-01-25T12:13:40;98437.91;;;10.29;52.03
35649;BME280;21768;48.562;13.414;2024-01-25T12:16:06;98442.56;;;10.25;52.38
35649;BME280;21768;48.562;13.414;2024-01-25T12:18:32;98445.56;;;10.20;51.89
35649;BME280;21768;48.562;13.414;2024-01-25T12:21:02;98442.63;;;10.16;51.70
35649;BME280;21768;48.562;13.414;2024-01-25T12:26:16;98438.47;;;10.16;51.72
35649;BME280;21768;48.562;13.414;2024-01-25T12:28:42;98439.66;;;10.20;52.18
35649;BME280;21768;48.562;13.414;2024-01-25T12:31:08;98453.25;;;10.22;52.00
35649;BME280;21768;48.562;13.414;2024-01-25T12:33:34;98452.25;;;10.20;51.89
35649;BME280;21768;48.562;13.414;2024-01-25T12:36:02;98457.75;;;10.16;51.77
35649;BME280;21768;48.562;13.414;2024-01-25T12:38:27;98449.09;;;10.12;51.46
35649;BME280;21768;48.562;13.414;2024-01-25T12:40:54;98458.78;;;10.08;52.16
35649;BME280;21768;48.562;13.414;2024-01-25T12:43:20;98457.13;;;10.18;52.19
35649;BME280;21768;48.562;13.414;2024-01-25T12:45:48;98446.97;;;10.27;51.78
35649;BME280;21768;48.562;13.414;2024-01-25T12:48:14;98442.19;;;10.30;52.05
35649;BME280;21768;48.562;13.414;2024-01-25T12:50:39;98442.94;;;10.39;51.88
35649;BME280;21768;48.562;13.414;2024-01-25T12:53:05;98443.56;;;10.37;51.56
35649;BME280;21768;48.562;13.414;2024-01-25T12:55:31;98438.03;;;10.31;52.00